sensor_id;sensor_type;location;lat;lon;timestamp;pressure;altitude;pressure_sealevel;temperature
61595;BMP280;47397;48.194;11.632;2023-02-28T00:00:15;96441.84;;;-2.52
61595;BMP280;47397;48.194;11.632;2023-02-28T00:01:15;96447.72;;;-2.50
61595;BMP280;47397;48.194;11.632;2023-02-28T00:02:16;96444.75;;;-2.40
61595;BMP280;47397;48.194;11.632;2023-02-28T00:03:16;96440.88;;;-2.32
61595;BMP280;47397;48.194;11.632;2023-02-28T00:04:17;96442.66;;;-2.28
61595;BMP280;47397;48.194;11.632;2023-02-28T00:05:19;96438.38;;;-2.32
61595;BMP280;47397;48.194;11.632;2023-02-28T00:06:20;96438.38;;;-2.56
61595;BMP280;47397;48.194;11.632;2023-02-28T00:07:20;96434.63;;;-2.44
61595;BMP280;47397;48.194;11.632;2023-02-28T00:08:21;96434.88;;;-2.37
61595;BMP280;47397;48.194;11.632;2023-02-28T00:09:21;96439.72;;;-2.41
61595;BMP280;47397;48.194;11.632;2023-02-28T00:10:23;96441.09;;;-2.49
61595;BMP280;47397;48.194;11.632;2023-02-28T00:11:24;96436.53;;;-2.37
61595;BMP280;47397;48.194;11.632;2023-02-28T00:12:24;96441.34;;;-2.42
61595;BMP280;47397;48.194;11.632;2023-02-28T00:13:25;96440.72;;;-2.60
61595;BMP280;47397;48.194;11.632;2023-02-28T00:14:27;96436.50;;;-2.61
61595;BMP280;47397;48.194;11.632;2023-02-28T00:15:27;96443.56;;;-2.49
61595;BMP280;47397;48.194;11.632;2023-02-28T00:16:28;96438.34;;;-2.57
61595;BMP280;47397;48.194;11.632;2023-02-28T00:17:28;96440.19;;;-2.52
61595;BMP280;47397;48.194;11.632;2023-02-28T00:18:29;96435.25;;;-2.50
61595;BMP280;47397;48.194;11.632;2023-02-28T00:19:29;96429.28;;;-2.55
61595;BMP280;47397;48.194;11.632;2023-02-28T00:20:30;96431.66;;;-2.58
61595;BMP280;47397;48.194;11.632;2023-02-28T00:21:30;96425.34;;;-2.48
61595;BMP280;47397;48.194;11.632;2023-02-28T00:22:30;96433.13;;;-2.39
61595;BMP280;47397;48.194;11.632;2023-02-28T00:23:31;96428.44;;;-2.56
61595;BMP280;47397;48.194;11.632;2023-02-28T00:24:31;96433.81;;;-2.43
61595;BMP280;47397;48.194;11.632;2023-02-28T00:25:32;96436.38;;;-2.42
61595;BMP280;47397;48.194;11.632;2023-02-28T00:26:32;96433.53;;;-2.53
61595;BMP280;47397;48.194;11.632;2023-02-28T00:27:33;96425.59;;;-2.65
61595;BMP280;47397;48.194;11.632;2023-02-28T00:28:33;96430.75;;;-2.60
61595;BMP280;47397;48.194;11.632;2023-02-28T00:29:36;96428.44;;;-2.56
61595;BMP280;47397;48.194;11.632;2023-02-28T00:30:36;96424.31;;;-2.55
61595;BMP280;47397;48.194;11.632;2023-02-28T00:31:36;96426.09;;;-2.51
61595;BMP280;47397;48.194;11.632;2023-02-28T00:32:37;96421.81;;;-2.55
61595;BMP280;47397;48.194;11.632;2023-02-28T00:33:38;96424.66;;;-2.44
61595;BMP280;47397;48.194;11.632;2023-02-28T00:34:38;96422.63;;;-2.56
61595;BMP280;47397;48.194;11.632;2023-02-28T00:35:39;96422.75;;;-2.52
61595;BMP280;47397;48.194;11.632;2023-02-28T00:36:39;96426.06;;;-2.53
61595;BMP280;47397;48.194;11.632;2023-02-28T00:37:39;96419.47;;;-2.50
61595;BMP280;47397;48.194;11.632;2023-02-28T00:38:40;96422.06;;;-2.47
61595;BMP280;47397;48.194;11.632;2023-02-28T00:39:41;96421.22;;;-2.48
61595;BMP280;47397;48.194;11.632;2023-02-28T00:40:42;96412.28;;;-2.43
61595;BMP280;47397;48.194;11.632;2023-02-28T00:41:43;96416.19;;;-2.49
61595;BMP280;47397;48.194;11.632;2023-02-28T00:42:44;96421.03;;;-2.54
61595;BMP280;47397;48.194;11.632;2023-02-28T00:43:44;96419.47;;;-2.50
61595;BMP280;47397;48.194;11.632;2023-02-28T00:44:46;96417.13;;;-2.70
61595;BMP280;47397;48.194;11.632;2023-02-28T00:45:46;96417.88;;;-2.72
61595;BMP280;47397;48.194;11.632;2023-02-28T00:46:47;96417.69;;;-2.55
61595;BMP280;47397;48.194;11.632;2023-02-28T00:47:47;96417.75;;;-2.53
61595;BMP280;47397;48.194;11.632;2023-02-28T00:48:47;96415.34;;;-2.50
61595;BMP280;47397;48.194;11.632;2023-02-28T00:49:48;96420.06;;;-2.58
61595;BMP280;47397;48.194;11.632;2023-02-28T00:50:48;96418.31;;;-2.60
61595;BMP280;47397;48.194;11.632;2023-02-28T00:51:49;96414.34;;;-2.55
61595;BMP280;47397;48.194;11.632;2023-02-28T00:52:49;96423.50;;;-2.54
61595;BMP280;47397;48.194;11.632;2023-02-28T00:53:50;96425.91;;;-2.57
61595;BMP280;47397;48.194;11.632;2023-02-28T00:54:50;96416.13;;;-2.75
61595;BMP280;47397;48.194;11.632;2023-02-28T00:55:51;96422.56;;;-2.58
61595;BMP280;47397;48.194;11.632;2023-02-28T00:56:52;96423.22;;;-2.62
61595;BMP280;47397;48.194;11.632;2023-02-28T00:57:52;96425.59;;;-2.65
61595;BMP280;47397;48.194;11.632;2023-02-28T00:58:53;96424.81;;;-2.64
61595;BMP280;47397;48.194;11.632;2023-02-28T00:59:55;96425.84;;;-2.59
61595;BMP280;47397;48.194;11.632;2023-02-28T01:00:55;96422.63;;;-2.78
61595;BMP280;47397;48.194;11.632;2023-02-28T01:01:56;96421.94;;;-2.74
61595;BMP280;47397;48.194;11.632;2023-02-28T01:02:56;96417.88;;;-2.72
61595;BMP280;47397;48.194;11.632;2023-02-28T01:03:56;96418.81;;;-2.69
61595;BMP280;47397;48.194;11.632;2023-02-28T01:04:57;96415.22;;;-2.77
61595;BMP280;47397;48.194;11.632;2023-02-28T01:05:58;96419.81;;;-2.64
61595;BMP280;47397;48.194;11.632;2023-02-28T01:06:58;96417.72;;;-2.77
61595;BMP280;47397;48.194;11.632;2023-02-28T01:07:58;96418.88;;;-2.67
61595;BMP280;47397;48.194;11.632;2023-02-28T01:08:59;96418.59;;;-2.75
61595;BMP280;47397;48.194;11.632;2023-02-28T01:09:59;96424.00;;;-2.63
61595;BMP280;47397;48.194;11.632;2023-02-28T01:11:07;96417.22;;;-2.67
61595;BMP280;47397;48.194;11.632;2023-02-28T01:12:08;96414.38;;;-2.77
61595;BMP280;47397;48.194;11.632;2023-02-28T01:13:09;96416.66;;;-2.84
61595;BMP280;47397;48.194;11.632;2023-02-28T01:14:12;96414.28;;;-2.80
61595;BMP280;47397;48.194;11.632;2023-02-28T01:15:14;96411.78;;;-3.03
61595;BMP280;47397;48.194;11.632;2023-02-28T01:16:14;96416.81;;;-3.01
61595;BMP280;47397;48.194;11.632;2023-02-28T01:17:15;96408.03;;;-2.93
61595;BMP280;47397;48.194;11.632;2023-02-28T01:18:15;96413.25;;;-3.08
61595;BMP280;47397;48.194;11.632;2023-02-28T01:19:16;96419.03;;;-3.09
61595;BMP280;47397;48.194;11.632;2023-02-28T01:20:16;96410.66;;;-2.89
61595;BMP280;47397;48.194;11.632;2023-02-28T01:21:18;96411.56;;;-2.87
61595;BMP280;47397;48.194;11.632;2023-02-28T01:22:20;96415.28;;;-2.98
61595;BMP280;47397;48.194;11.632;2023-02-28T01:23:22;96406.00;;;-2.79
61595;BMP280;47397;48.194;11.632;2023-02-28T01:24:22;96406.66;;;-2.85
61595;BMP280;47397;48.194;11.632;2023-02-28T01:25:22;96406.00;;;-2.79
61595;BMP280;47397;48.194;11.632;2023-02-28T01:26:23;96413.31;;;-2.84
61595;BMP280;47397;48.194;11.632;2023-02-28T01:27:23;96406.31;;;-3.17
61595;BMP280;47397;48.194;11.632;2023-02-28T01:28:24;96407.72;;;-3.01
61595;BMP280;47397;48.194;11.632;2023-02-28T01:29:24;96406.13;;;-2.99
61595;BMP280;47397;48.194;11.632;2023-02-28T01:30:26;96399.59;;;-2.97
61595;BMP280;47397;48.194;11.632;2023-02-28T01:31:27;96401.47;;;-2.91
61595;BMP280;47397;48.194;11.632;2023-02-28T01:32:27;96403.25;;;-2.87
61595;BMP280;47397;48.194;11.632;2023-02-28T01:33:28;96404.25;;;-2.82
61595;BMP280;47397;48.194;11.632;2023-02-28T01:34:28;96402.00;;;-2.76
61595;BMP280;47397;48.194;11.632;2023-02-28T01:35:32;96396.13;;;-3.00
61595;BMP280;47397;48.194;11.632;2023-02-28T01:36:32;96396.25;;;-2.97
61595;BMP280;47397;48.194;11.632;2023-02-28T01:37:32;96395.28;;;-3.01
61595;BMP280;47397;48.194;11.632;2023-02-28T01:38:33;96391.03;;;-3.03
61595;BMP280;47397;48.194;11.632;2023-02-28T01:39:34;96388.59;;;-3.02
61595;BMP280;47397;48.194;11.632;2023-02-28T01:40:34;96399.41;;;-3.01
61595;BMP280;47397;48.194;11.632;2023-02-28T01:41:34;96390.41;;;-2.98
61595;BMP280;47397;48.194;11.632;2023-02-28T01:42:35;96394.69;;;-2.95
61595;BMP280;47397;48.194;11.632;2023-02-28T01:43:58;96387.81;;;-3.01
61595;BMP280;47397;48.194;11.632;2023-02-28T01:45:06;96394.94;;;-2.88
61595;BMP280;47397;48.194;11.632;2023-02-28T01:46:16;96391.84;;;-3.04
61595;BMP280;47397;48.194;11.632;2023-02-28T01:47:16;96387.88;;;-2.99
61595;BMP280;47397;48.194;11.632;2023-02-28T01:48:17;96391.22;;;-2.99
61595;BMP280;47397;48.194;11.632;2023-02-28T01:49:19;96386.91;;;-3.03
61595;BMP280;47397;48.194;11.632;2023-02-28T01:50:22;96390.50;;;-2.96
61595;BMP280;47397;48.194;11.632;2023-02-28T01:51:27;96387.75;;;-3.02
61595;BMP280;47397;48.194;11.632;2023-02-28T01:52:30;96389.13;;;-3.10
61595;BMP280;47397;48.194;11.632;2023-02-28T01:53:33;96386.03;;;-3.05
61595;BMP280;47397;48.194;11.632;2023-02-28T01:54:35;96385.34;;;-3.01
61595;BMP280;47397;48.194;11.632;2023-02-28T01:55:35;96386.53;;;-2.91
61595;BMP280;47397;48.194;11.632;2023-02-28T01:56:37;96392.25;;;-2.94
61595;BMP280;47397;48.194;11.632;2023-02-28T01:57:41;96385.34;;;-3.01
61595;BMP280;47397;48.194;11.632;2023-02-28T01:58:42;96397.38;;;-3.11
61595;BMP280;47397;48.194;11.632;2023-02-28T01:59:45;96382.56;;;-3.08
61595;BMP280;47397;48.194;11.632;2023-02-28T02:00:48;96381.78;;;-3.07
61595;BMP280;47397;48.194;11.632;2023-02-28T02:01:50;96387.28;;;-3.16
61595;BMP280;47397;48.194;11.632;2023-02-28T02:02:54;96389.03;;;-3.13
61595;BMP280;47397;48.194;11.632;2023-02-28T02:03:58;96389.94;;;-3.11
61595;BMP280;47397;48.194;11.632;2023-02-28T02:05:03;96387.22;;;-3.18
61595;BMP280;47397;48.194;11.632;2023-02-28T02:06:04;96394.00;;;-3.13
61595;BMP280;47397;48.194;11.632;2023-02-28T02:07:05;96390.03;;;-3.08
61595;BMP280;47397;48.194;11.632;2023-02-28T02:08:09;96379.88;;;-3.15
61595;BMP280;47397;48.194;11.632;2023-02-28T02:09:11;96382.75;;;-3.04
61595;BMP280;47397;48.194;11.632;2023-02-28T02:10:14;96380.25;;;-3.04
61595;BMP280;47397;48.194;11.632;2023-02-28T02:11:18;96388.63;;;-3.24
61595;BMP280;47397;48.194;11.632;2023-02-28T02:12:27;96386.31;;;-3.20
61595;BMP280;47397;48.194;11.632;2023-02-28T02:13:42;96391.63;;;-3.10
61595;BMP280;47397;48.194;11.632;2023-02-28T02:14:58;96386.94;;;-3.25
61595;BMP280;47397;48.194;11.632;2023-02-28T02:16:07;96380.47;;;-3.42
61595;BMP280;47397;48.194;11.632;2023-02-28T02:17:20;96384.72;;;-3.18
61595;BMP280;47397;48.194;11.632;2023-02-28T02:18:28;96385.63;;;-3.16
61595;BMP280;47397;48.194;11.632;2023-02-28T02:23:26;96389.03;;;-3.13
61595;BMP280;47397;48.194;11.632;2023-02-28T02:24:54;96387.50;;;-3.10
61595;BMP280;47397;48.194;11.632;2023-02-28T02:26:12;96380.72;;;-3.14
61595;BMP280;47397;48.194;11.632;2023-02-28T02:27:24;96382.78;;;-3.02
61595;BMP280;47397;48.194;11.632;2023-02-28T02:28:53;96381.03;;;-3.05
61595;BMP280;47397;48.194;11.632;2023-02-28T02:31:50;96380.66;;;-3.16
61595;BMP280;47397;48.194;11.632;2023-02-28T02:34:48;96385.13;;;-3.29
61595;BMP280;47397;48.194;11.632;2023-02-28T02:35:53;96387.84;;;-3.23
61595;BMP280;47397;48.194;11.632;2023-02-28T02:37:03;96387.84;;;-3.23
61595;BMP280;47397;48.194;11.632;2023-02-28T02:38:12;96383.50;;;-3.29
61595;BMP280;47397;48.194;11.632;2023-02-28T02:39:20;96387.72;;;-3.26
61595;BMP280;47397;48.194;11.632;2023-02-28T02:40:23;96377.88;;;-3.46
61595;BMP280;47397;48.194;11.632;2023-02-28T02:41:33;96377.31;;;-3.38
61595;BMP280;47397;48.194;11.632;2023-02-28T02:42:40;96378.41;;;-3.32
61595;BMP280;47397;48.194;11.632;2023-02-28T02:43:47;96374.28;;;-3.31
61595;BMP280;47397;48.194;11.632;2023-02-28T02:44:50;96379.50;;;-3.25
61595;BMP280;47397;48.194;11.632;2023-02-28T02:45:54;96372.09;;;-3.24
61595;BMP280;47397;48.194;11.632;2023-02-28T02:46:59;96375.09;;;-3.32
61595;BMP280;47397;48.194;11.632;2023-02-28T02:48:03;96379.31;;;-3.30
61595;BMP280;47397;48.194;11.632;2023-02-28T02:49:09;96376.72;;;-3.33
61595;BMP280;47397;48.194;11.632;2023-02-28T02:50:15;96371.13;;;-3.27
61595;BMP280;47397;48.194;11.632;2023-02-28T02:51:19;96376.47;;;-3.39
61595;BMP280;47397;48.194;11.632;2023-02-28T02:52:23;96374.84;;;-3.38
61595;BMP280;47397;48.194;11.632;2023-02-28T02:53:29;96370.97;;;-3.32
61595;BMP280;47397;48.194;11.632;2023-02-28T02:54:33;96372.97;;;-3.44
61595;BMP280;47397;48.194;11.632;2023-02-28T02:55:39;96372.41;;;-3.37
61595;BMP280;47397;48.194;11.632;2023-02-28T02:56:43;96369.06;;;-3.37
61595;BMP280;47397;48.194;11.632;2023-02-28T02:57:47;96376.34;;;-3.42
61595;BMP280;47397;48.194;11.632;2023-02-28T02:58:50;96373.75;;;-3.45
61595;BMP280;47397;48.194;11.632;2023-02-28T02:59:54;96376.97;;;-3.48
61595;BMP280;47397;48.194;11.632;2023-02-28T03:00:58;96377.09;;;-3.44
61595;BMP280;47397;48.194;11.632;2023-02-28T03:02:01;96368.91;;;-3.42
61595;BMP280;47397;48.194;11.632;2023-02-28T03:03:04;96371.75;;;-3.33
61595;BMP280;47397;48.194;11.632;2023-02-28T03:04:09;96374.03;;;-3.37
61595;BMP280;47397;48.194;11.632;2023-02-28T03:05:18;96370.75;;;-3.36
61595;BMP280;47397;48.194;11.632;2023-02-28T03:06:19;96378.00;;;-3.42
61595;BMP280;47397;48.194;11.632;2023-02-28T03:07:19;96378.56;;;-3.50
61595;BMP280;47397;48.194;11.632;2023-02-28T03:08:20;96370.66;;;-3.39
61595;BMP280;47397;48.194;11.632;2023-02-28T03:09:21;96372.28;;;-3.40
61595;BMP280;47397;48.194;11.632;2023-02-28T03:10:43;96375.22;;;-3.50
61595;BMP280;47397;48.194;11.632;2023-02-28T03:11:43;96367.78;;;-3.50
61595;BMP280;47397;48.194;11.632;2023-02-28T03:12:48;96372.84;;;-3.47
61595;BMP280;47397;48.194;11.632;2023-02-28T03:14:07;96374.56;;;-3.46
61595;BMP280;47397;48.194;11.632;2023-02-28T03:15:14;96369.00;;;-3.39
61595;BMP280;47397;48.194;11.632;2023-02-28T03:16:35;96374.09;;;-3.36
61595;BMP280;47397;48.194;11.632;2023-02-28T03:17:47;96375.22;;;-3.50
61595;BMP280;47397;48.194;11.632;2023-02-28T03:18:54;96372.00;;;-3.48
61595;BMP280;47397;48.194;11.632;2023-02-28T03:20:03;96376.25;;;-3.45
61595;BMP280;47397;48.194;11.632;2023-02-28T03:21:12;96374.56;;;-3.46
61595;BMP280;47397;48.194;11.632;2023-02-28T03:22:24;96367.44;;;-3.37
61595;BMP280;47397;48.194;11.632;2023-02-28T03:23:32;96368.41;;;-3.33
61595;BMP280;47397;48.194;11.632;2023-02-28T03:24:41;96378.53;;;-3.29
61595;BMP280;47397;48.194;11.632;2023-02-28T03:25:54;96375.72;;;-3.36
61595;BMP280;47397;48.194;11.632;2023-02-28T03:26:58;96374.25;;;-3.33
61595;BMP280;47397;48.194;11.632;2023-02-28T03:28:04;96375.34;;;-3.47
61595;BMP280;47397;48.194;11.632;2023-02-28T03:29:10;96371.50;;;-3.39
61595;BMP280;47397;48.194;11.632;2023-02-28T03:30:17;96372.22;;;-3.41
61595;BMP280;47397;48.194;11.632;2023-02-28T03:31:24;96373.59;;;-3.50
61595;BMP280;47397;48.194;11.632;2023-02-28T03:32:29;96377.66;;;-3.52
61595;BMP280;47397;48.194;11.632;2023-02-28T03:33:38;96375.47;;;-3.44
61595;BMP280;47397;48.194;11.632;2023-02-28T03:34:41;96382.91;;;-3.44
61595;BMP280;47397;48.194;11.632;2023-02-28T03:35:45;96372.34;;;-3.61
61595;BMP280;47397;48.194;11.632;2023-02-28T03:36:52;96377.81;;;-3.47
61595;BMP280;47397;48.194;11.632;2023-02-28T03:37:59;96381.56;;;-3.36
61595;BMP280;47397;48.194;11.632;2023-02-28T03:39:03;96386.75;;;-3.52
61595;BMP280;47397;48.194;11.632;2023-02-28T03:40:07;96379.41;;;-3.49
61595;BMP280;47397;48.194;11.632;2023-02-28T03:41:13;96372.34;;;-3.38
61595;BMP280;47397;48.194;11.632;2023-02-28T03:42:17;96378.59;;;-3.27
61595;BMP280;47397;48.194;11.632;2023-02-28T03:43:23;96376.47;;;-3.39
61595;BMP280;47397;48.194;11.632;2023-02-28T03:44:28;96378.16;;;-3.38
61595;BMP280;47397;48.194;11.632;2023-02-28T03:45:32;96378.97;;;-3.39
61595;BMP280;47397;48.194;11.632;2023-02-28T03:46:37;96381.69;;;-3.33
61595;BMP280;47397;48.194;11.632;2023-02-28T03:47:41;96380.84;;;-3.33
61595;BMP280;47397;48.194;11.632;2023-02-28T03:48:44;96384.50;;;-3.46
61595;BMP280;47397;48.194;11.632;2023-02-28T03:49:48;96382.41;;;-3.35
61595;BMP280;47397;48.194;11.632;2023-02-28T03:50:54;96386.41;;;-3.39
61595;BMP280;47397;48.194;11.632;2023-02-28T03:51:59;96384.25;;;-3.31
61595;BMP280;47397;48.194;11.632;2023-02-28T03:53:05;96393.59;;;-3.24
61595;BMP280;47397;48.194;11.632;2023-02-28T03:54:11;96388.63;;;-3.24
61595;BMP280;47397;48.194;11.632;2023-02-28T03:55:13;96382.09;;;-3.22
61595;BMP280;47397;48.194;11.632;2023-02-28T03:56:17;96383.56;;;-3.27
61595;BMP280;47397;48.194;11.632;2023-02-28T03:57:23;96392.59;;;-3.29
61595;BMP280;47397;48.194;11.632;2023-02-28T03:58:38;96384.47;;;-3.25
61595;BMP280;47397;48.194;11.632;2023-02-28T03:59:45;96383.34;;;-3.33
61595;BMP280;47397;48.194;11.632;2023-02-28T04:00:48;96384.41;;;-3.27
61595;BMP280;47397;48.194;11.632;2023-02-28T04:01:50;96382.81;;;-3.25
61595;BMP280;47397;48.194;11.632;2023-02-28T04:02:50;96390.16;;;-3.28
61595;BMP280;47397;48.194;11.632;2023-02-28T04:03:51;96384.41;;;-3.27
61595;BMP280;47397;48.194;11.632;2023-02-28T04:04:52;96385.41;;;-3.22
61595;BMP280;47397;48.194;11.632;2023-02-28T04:05:53;96382.88;;;-3.23
61595;BMP280;47397;48.194;11.632;2023-02-28T04:07:02;96385.25;;;-3.26
61595;BMP280;47397;48.194;11.632;2023-02-28T04:08:04;96385.81;;;-3.33
61595;BMP280;47397;48.194;11.632;2023-02-28T04:09:07;96391.75;;;-3.30
61595;BMP280;47397;48.194;11.632;2023-02-28T04:10:09;96392.19;;;-3.18
61595;BMP280;47397;48.194;11.632;2023-02-28T04:11:19;96396.03;;;-3.26
61595;BMP280;47397;48.194;11.632;2023-02-28T04:12:20;96390.53;;;-3.39
61595;BMP280;47397;48.194;11.632;2023-02-28T04:13:20;96395.81;;;-3.32
61595;BMP280;47397;48.194;11.632;2023-02-28T04:14:21;96393.50;;;-3.27
61595;BMP280;47397;48.194;11.632;2023-02-28T04:15:21;96396.25;;;-3.20
61595;BMP280;47397;48.194;11.632;2023-02-28T04:16:22;96393.72;;;-3.21
61595;BMP280;47397;48.194;11.632;2023-02-28T04:17:22;96400.91;;;-3.29
61595;BMP280;47397;48.194;11.632;2023-02-28T04:18:23;96401.97;;;-3.22
61595;BMP280;47397;48.194;11.632;2023-02-28T04:19:23;96396.94;;;-3.24
61595;BMP280;47397;48.194;11.632;2023-02-28T04:20:23;96398.06;;;-3.16
61595;BMP280;47397;48.194;11.632;2023-02-28T04:21:24;96402.25;;;-3.15
61595;BMP280;47397;48.194;11.632;2023-02-28T04:22:25;96402.41;;;-3.10
61595;BMP280;47397;48.194;11.632;2023-02-28T04:23:26;96404.28;;;-3.04
61595;BMP280;47397;48.194;11.632;2023-02-28T04:24:27;96399.25;;;-3.06
61595;BMP280;47397;48.194;11.632;2023-02-28T04:25:28;96404.22;;;-3.06
61595;BMP280;47397;48.194;11.632;2023-02-28T04:26:29;96410.72;;;-3.32
61595;BMP280;47397;48.194;11.632;2023-02-28T04:27:30;96414.06;;;-3.09
61595;BMP280;47397;48.194;11.632;2023-02-28T04:28:30;96409.53;;;-2.97
61595;BMP280;47397;48.194;11.632;2023-02-28T04:29:31;96408.91;;;-2.91
61595;BMP280;47397;48.194;11.632;2023-02-28T04:30:32;96408.13;;;-2.90
61595;BMP280;47397;48.194;11.632;2023-02-28T04:31:32;96405.69;;;-2.89
61595;BMP280;47397;48.194;11.632;2023-02-28T04:32:33;96408.41;;;-3.05
61595;BMP280;47397;48.194;11.632;2023-02-28T04:33:33;96406.53;;;-3.10
61595;BMP280;47397;48.194;11.632;2023-02-28T04:34:33;96406.31;;;-3.17
61595;BMP280;47397;48.194;11.632;2023-02-28T04:35:34;96409.88;;;-2.88
61595;BMP280;47397;48.194;11.632;2023-02-28T04:36:34;96416.50;;;-2.88
61595;BMP280;47397;48.194;11.632;2023-02-28T04:37:36;96404.16;;;-2.85
61595;BMP280;47397;48.194;11.632;2023-02-28T04:38:38;96412.56;;;-2.81
61595;BMP280;47397;48.194;11.632;2023-02-28T04:39:39;96413.69;;;-2.73
61595;BMP280;47397;48.194;11.632;2023-02-28T04:40:39;96411.94;;;-2.76
61595;BMP280;47397;48.194;11.632;2023-02-28T04:41:40;96413.53;;;-2.78
61595;BMP280;47397;48.194;11.632;2023-02-28T04:42:40;96404.69;;;-2.94
61595;BMP280;47397;48.194;11.632;2023-02-28T04:43:41;96408.03;;;-2.93
61595;BMP280;47397;48.194;11.632;2023-02-28T04:44:41;96410.88;;;-2.83
61595;BMP280;47397;48.194;11.632;2023-02-28T04:45:41;96414.38;;;-2.77
61595;BMP280;47397;48.194;11.632;2023-02-28T04:46:42;96418.97;;;-2.64
61595;BMP280;47397;48.194;11.632;2023-02-28T04:47:43;96418.94;;;-2.66
61595;BMP280;47397;48.194;11.632;2023-02-28T04:48:43;96412.72;;;-2.55
61595;BMP280;47397;48.194;11.632;2023-02-28T04:49:44;96413.44;;;-2.57
61595;BMP280;47397;48.194;11.632;2023-02-28T04:50:44;96412.72;;;-2.55
61595;BMP280;47397;48.194;11.632;2023-02-28T04:51:44;96419.22;;;-2.58
61595;BMP280;47397;48.194;11.632;2023-02-28T04:52:46;96419.03;;;-2.63
61595;BMP280;47397;48.194;11.632;2023-02-28T04:53:47;96413.91;;;-2.67
61595;BMP280;47397;48.194;11.632;2023-02-28T04:54:47;96422.09;;;-2.70
61595;BMP280;47397;48.194;11.632;2023-02-28T04:55:48;96415.09;;;-2.58
61595;BMP280;47397;48.194;11.632;2023-02-28T04:56:48;96419.63;;;-2.70
61595;BMP280;47397;48.194;11.632;2023-02-28T04:57:48;96423.56;;;-2.53
61595;BMP280;47397;48.194;11.632;2023-02-28T04:58:49;96419.47;;;-2.50
61595;BMP280;47397;48.194;11.632;2023-02-28T04:59:49;96422.03;;;-2.49
61595;BMP280;47397;48.194;11.632;2023-02-28T05:00:50;96415.22;;;-2.77
61595;BMP280;47397;48.194;11.632;2023-02-28T05:01:50;96413.94;;;-2.66
61595;BMP280;47397;48.194;11.632;2023-02-28T05:02:51;96416.59;;;-2.61
61595;BMP280;47397;48.194;11.632;2023-02-28T05:03:53;96418.59;;;-2.75
61595;BMP280;47397;48.194;11.632;2023-02-28T05:04:53;96415.75;;;-2.62
61595;BMP280;47397;48.194;11.632;2023-02-28T05:05:54;96422.38;;;-2.62
61595;BMP280;47397;48.194;11.632;2023-02-28T05:06:54;96415.31;;;-2.52
61595;BMP280;47397;48.194;11.632;2023-02-28T05:07:56;96422.13;;;-2.46
61595;BMP280;47397;48.194;11.632;2023-02-28T05:08:57;96426.25;;;-2.46
61595;BMP280;47397;48.194;11.632;2023-02-28T05:09:57;96423.81;;;-2.45
61595;BMP280;47397;48.194;11.632;2023-02-28T05:10:58;96424.03;;;-2.39
61595;BMP280;47397;48.194;11.632;2023-02-28T05:11:58;96425.66;;;-2.39
61595;BMP280;47397;48.194;11.632;2023-02-28T05:12:59;96426.75;;;-2.57
61595;BMP280;47397;48.194;11.632;2023-02-28T05:13:59;96430.63;;;-2.63
61595;BMP280;47397;48.194;11.632;2023-02-28T05:14:59;96431.97;;;-2.49
61595;BMP280;47397;48.194;11.632;2023-02-28T05:16:00;96434.47;;;-2.49
61595;BMP280;47397;48.194;11.632;2023-02-28T05:17:00;96431.94;;;-2.50
61595;BMP280;47397;48.194;11.632;2023-02-28T05:18:01;96427.41;;;-2.61
61595;BMP280;47397;48.194;11.632;2023-02-28T05:19:01;96426.50;;;-2.63
61595;BMP280;47397;48.194;11.632;2023-02-28T05:20:02;96436.91;;;-2.50
61595;BMP280;47397;48.194;11.632;2023-02-28T05:21:02;96428.72;;;-2.70
61595;BMP280;47397;48.194;11.632;2023-02-28T05:22:03;96420.56;;;-2.66
61595;BMP280;47397;48.194;11.632;2023-02-28T05:23:05;96431.72;;;-2.57
61595;BMP280;47397;48.194;11.632;2023-02-28T05:24:06;96431.88;;;-2.52
61595;BMP280;47397;48.194;11.632;2023-02-28T05:25:10;96432.50;;;-2.58
61595;BMP280;47397;48.194;11.632;2023-02-28T05:26:10;96431.13;;;-2.49
61595;BMP280;47397;48.194;11.632;2023-02-28T05:27:11;96441.66;;;-2.57
61595;BMP280;47397;48.194;11.632;2023-02-28T05:28:11;96436.41;;;-2.40
61595;BMP280;47397;48.194;11.632;2023-02-28T05:29:12;96437.06;;;-2.46
61595;BMP280;47397;48.194;11.632;2023-02-28T05:30:12;96435.25;;;-2.50
61595;BMP280;47397;48.194;11.632;2023-02-28T05:31:13;96433.84;;;-2.66
61595;BMP280;47397;48.194;11.632;2023-02-28T05:32:14;96430.13;;;-2.55
61595;BMP280;47397;48.194;11.632;2023-02-28T05:33:15;96431.81;;;-2.54
61595;BMP280;47397;48.194;11.632;2023-02-28T05:34:15;96433.63;;;-2.49
61595;BMP280;47397;48.194;11.632;2023-02-28T05:35:16;96439.38;;;-2.50
61595;BMP280;47397;48.194;11.632;2023-02-28T05:36:16;96438.44;;;-2.54
61595;BMP280;47397;48.194;11.632;2023-02-28T05:37:17;96427.84;;;-2.48
61595;BMP280;47397;48.194;11.632;2023-02-28T05:38:18;96436.38;;;-2.42
61595;BMP280;47397;48.194;11.632;2023-02-28T05:39:19;96434.47;;;-2.49
61595;BMP280;47397;48.194;11.632;2023-02-28T05:40:19;96429.84;;;-2.38
61595;BMP280;47397;48.194;11.632;2023-02-28T05:41:20;96431.94;;;-2.50
61595;BMP280;47397;48.194;11.632;2023-02-28T05:42:20;96436.53;;;-2.37
61595;BMP280;47397;48.194;11.632;2023-02-28T05:43:20;96429.94;;;-2.35
61595;BMP280;47397;48.194;11.632;2023-02-28T05:44:21;96432.69;;;-2.28
61595;BMP280;47397;48.194;11.632;2023-02-28T05:45:21;96436.94;;;-2.25
61595;BMP280;47397;48.194;11.632;2023-02-28T05:46:22;96427.63;;;-2.31
61595;BMP280;47397;48.194;11.632;2023-02-28T05:47:22;96432.03;;;-2.47
61595;BMP280;47397;48.194;11.632;2023-02-28T05:48:22;96432.28;;;-2.40
61595;BMP280;47397;48.194;11.632;2023-02-28T05:49:23;96433.94;;;-2.40
61595;BMP280;47397;48.194;11.632;2023-02-28T05:50:23;96438.22;;;-2.36
61595;BMP280;47397;48.194;11.632;2023-02-28T05:51:24;96439.91;;;-2.35
61595;BMP280;47397;48.194;11.632;2023-02-28T05:52:24;96438.47;;;-2.29
61595;BMP280;47397;48.194;11.632;2023-02-28T05:53:26;96439.72;;;-2.41
61595;BMP280;47397;48.194;11.632;2023-02-28T05:54:26;96432.53;;;-2.32
61595;BMP280;47397;48.194;11.632;2023-02-28T05:55:27;96439.44;;;-2.25
61595;BMP280;47397;48.194;11.632;2023-02-28T05:56:28;96436.97;;;-2.24
61595;BMP280;47397;48.194;11.632;2023-02-28T05:57:28;96432.13;;;-2.21
61595;BMP280;47397;48.194;11.632;2023-02-28T05:58:29;96434.69;;;-2.19
61595;BMP280;47397;48.194;11.632;2023-02-28T05:59:29;96441.47;;;-2.15
61595;BMP280;47397;48.194;11.632;2023-02-28T06:00:29;96437.31;;;-2.38
61595;BMP280;47397;48.194;11.632;2023-02-28T06:01:33;96440.34;;;-2.47
61595;BMP280;47397;48.194;11.632;2023-02-28T06:02:33;96444.63;;;-2.43
61595;BMP280;47397;48.194;11.632;2023-02-28T06:03:34;96439.44;;;-2.25